Time;durP1;ratioP1;P1;durP2;ratioP2;P2;SDS_P1;SDS_P2;PMS_P1;PMS_P2;Temp;Humidity;BMP_temperature;BMP_pressure;BME280_temperature;BME280_humidity;BME280_pressure;Samples;Min_cycle;Max_cycle;Signal;HPM_P1;HPM_P2
2021/01/20 00:00:14;;;;;;;22.13;10.90;;;;;;;-1.41;71.95;95487.22;5055856;28;20214;-80
2021/01/20 00:02:41;;;;;;;24.40;11.57;;;;;;;-1.38;71.63;95487.13;5037337;28;20191;-81
2021/01/20 00:05:08;;;;;;;24.48;12.45;;;;;;;-1.35;71.48;95497.34;5055861;28;20207;-81
2021/01/20 00:07:36;;;;;;;30.15;12.88;;;;;;;-1.31;71.65;95489.47;5056061;28;20230;-81
2021/01/20 00:10:03;;;;;;;20.85;11.85;;;;;;;-1.31;71.89;95498.94;5055618;28;20680;-80
2021/01/20 00:12:29;;;;;;;25.20;13.00;;;;;;;-1.38;71.88;95503.41;5055753;28;20202;-81
2021/01/20 00:14:55;;;;;;;26.55;13.18;;;;;;;-1.38;71.42;95498.28;5055350;28;20674;-81
2021/01/20 00:17:22;;;;;;;23.52;12.32;;;;;;;-1.39;72.11;95499.16;5055756;28;20202;-81
2021/01/20 00:19:48;;;;;;;28.23;14.73;;;;;;;-1.43;72.08;95497.56;5055602;28;20596;-79
2021/01/20 00:22:15;;;;;;;26.33;12.77;;;;;;;-1.56;72.07;95491.91;5054448;28;20230;-80
2021/01/20 00:24:42;;;;;;;24.20;11.70;;;;;;;-1.63;72.13;95486.97;5055522;28;20202;-80
2021/01/20 00:27:09;;;;;;;22.08;12.73;;;;;;;-1.65;73.13;95488.75;5020396;28;20280;-80
2021/01/20 00:29:36;;;;;;;22.23;12.30;;;;;;;-1.64;72.72;95499.00;5055575;28;20207;-80
2021/01/20 00:32:03;;;;;;;21.83;12.13;;;;;;;-1.64;71.95;95504.16;5055249;28;20236;-81
2021/01/20 00:34:29;;;;;;;36.03;12.80;;;;;;;-1.63;72.86;95505.84;5055503;28;20227;-80
2021/01/20 00:36:56;;;;;;;20.98;12.23;;;;;;;-1.64;73.50;95503.31;5055238;28;20225;-80
2021/01/20 00:39:22;;;;;;;25.33;11.23;;;;;;;-1.68;73.10;95501.72;5055254;28;20249;-80
2021/01/20 00:41:49;;;;;;;26.83;11.82;;;;;;;-1.68;72.81;95499.97;5054919;28;20213;-81
2021/01/20 00:44:16;;;;;;;23.83;12.00;;;;;;;-1.72;73.19;95498.38;5055268;28;20554;-81
2021/01/20 00:46:42;;;;;;;19.80;10.65;;;;;;;-1.72;73.04;95506.09;5055247;28;20616;-80
2021/01/20 00:49:08;;;;;;;13.75;8.38;;;;;;;-1.67;73.35;95493.94;5055108;28;20206;-81
2021/01/20 00:51:35;;;;;;;16.33;9.15;;;;;;;-1.65;73.04;95488.75;5054807;28;20639;-81
2021/01/20 00:54:01;;;;;;;12.02;8.15;;;;;;;-1.68;73.21;95489.69;5054558;28;20234;-81
2021/01/20 00:56:28;;;;;;;31.00;14.90;;;;;;;-1.69;72.87;95500.88;5054893;28;20203;-80
2021/01/20 00:58:55;;;;;;;22.15;12.40;;;;;;;-1.76;73.49;95494.19;5054892;28;20264;-81
2021/01/20 01:01:21;;;;;;;21.38;10.98;;;;;;;-1.80;73.14;95481.44;5054482;28;20207;-81
2021/01/20 01:03:48;;;;;;;19.92;10.65;;;;;;;-1.75;73.27;95495.88;5035831;28;20203;-81
2021/01/20 01:06:15;;;;;;;17.92;10.50;;;;;;;-1.75;72.36;95500.16;5054561;28;20252;-81
2021/01/20 01:08:41;;;;;;;27.10;9.23;;;;;;;-1.83;72.85;95486.69;5054719;28;20203;-81
2021/01/20 01:11:08;;;;;;;18.48;9.55;;;;;;;-1.82;73.16;95502.06;5054388;28;20301;-81
2021/01/20 01:13:34;;;;;;;20.30;10.20;;;;;;;-1.82;73.75;95506.38;5054807;28;20283;-80
2021/01/20 01:16:01;;;;;;;17.58;8.93;;;;;;;-1.80;73.14;95499.44;5054585;28;20199;-80
2021/01/20 01:18:28;;;;;;;21.63;9.38;;;;;;;-1.75;73.28;95495.88;5019326;28;20214;-81
2021/01/20 01:20:54;;;;;;;16.25;9.45;;;;;;;-1.70;73.09;95495.75;5054714;28;20199;-80
2021/01/20 01:23:20;;;;;;;15.15;9.07;;;;;;;-1.69;72.88;95495.72;5054492;28;20234;-80
2021/01/20 01:25:47;;;;;;;17.58;9.38;;;;;;;-1.67;73.09;95496.53;5054433;28;20234;-80
2021/01/20 01:28:14;;;;;;;14.30;9.30;;;;;;;-1.67;72.53;95483.66;5054366;28;20214;-81
2021/01/20 01:30:41;;;;;;;17.02;9.80;;;;;;;-1.65;72.80;95486.19;5054194;28;20207;-81
2021/01/20 01:33:09;;;;;;;16.85;9.63;;;;;;;-1.71;71.87;95487.19;5053618;28;20227;-80
2021/01/20 01:35:35;;;;;;;13.70;9.00;;;;;;;-1.71;73.54;95468.34;5054137;28;20191;-80
2021/01/20 01:38:02;;;;;;;19.75;10.70;;;;;;;-1.80;73.43;95460.88;5054216;28;20647;-79
2021/01/20 01:40:28;;;;;;;23.67;10.00;;;;;;;-1.77;73.40;95464.19;5054256;28;20209;-80
2021/01/20 01:42:55;;;;;;;25.00;11.48;;;;;;;-1.83;73.11;95455.81;5035290;28;20260;-81
2021/01/20 01:45:22;;;;;;;20.88;11.63;;;;;;;-1.81;73.55;95456.63;5054235;28;20289;-81
2021/01/20 01:47:48;;;;;;;17.95;10.10;;;;;;;-1.80;74.03;95461.72;5053746;28;20206;-81
2021/01/20 01:50:15;;;;;;;21.63;10.40;;;;;;;-1.79;73.27;95457.41;5053829;28;20202;-81
2021/01/20 01:52:44;;;;;;;19.75;11.02;;;;;;;-1.75;73.75;95459.00;5035413;28;20239;-79
2021/01/20 01:55:11;;;;;;;22.92;12.65;;;;;;;-1.71;73.50;95453.75;5052791;28;20440;-80
2021/01/20 01:57:40;;;;;;;18.02;10.80;;;;;;;-1.63;72.57;95469.81;5053735;28;20720;-80
2021/01/20 02:00:09;;;;;;;19.50;9.43;;;;;;;-1.66;72.51;95469.91;5053615;28;20206;-81
2021/01/20 02:02:36;;;;;;;23.75;11.02;;;;;;;-1.63;72.14;95480.09;5053544;28;20241;-80
2021/01/20 02:05:04;;;;;;;14.50;8.52;;;;;;;-1.65;72.77;95478.47;5053954;28;20209;-80
2021/01/20 02:07:33;;;;;;;20.95;9.07;;;;;;;-1.65;73.37;95483.63;5002172;28;20198;-81
2021/01/20 02:10:01;;;;;;;14.90;9.30;;;;;;;-1.62;72.72;95475.81;5053477;28;20199;-80
2021/01/20 02:13:06;;;;;;;14.80;7.95;;;;;;;-1.60;72.57;95477.44;5053589;28;20265;-80
2021/01/20 02:15:39;;;;;;;15.15;7.50;;;;;;;-1.63;72.43;95479.25;5053792;28;20198;-81
2021/01/20 02:18:10;;;;;;;17.65;9.20;;;;;;;-1.68;72.61;95481.97;5053568;28;20214;-81
2021/01/20 02:20:54;;;;;;;15.40;9.05;;;;;;;-1.75;72.90;95487.31;5053461;28;20651;-81
2021/01/20 02:23:23;;;;;;;13.20;9.23;;;;;;;-1.83;73.09;95481.53;5053524;28;20234;-81
2021/01/20 02:26:16;;;;;;;16.75;9.05;;;;;;;-1.84;72.81;95478.13;5053374;28;20659;-80
2021/01/20 02:28:53;;;;;;;15.23;9.85;;;;;;;-1.81;72.94;95479.75;5053189;28;20253;-82
2021/01/20 02:31:24;;;;;;;16.98;11.02;;;;;;;-1.87;72.37;95470.50;5052985;28;20198;-82
2021/01/20 02:33:53;;;;;;;18.20;11.25;;;;;;;-1.83;73.12;95468.69;5052938;28;20741;-81
2021/01/20 02:36:21;;;;;;;17.08;9.82;;;;;;;-1.83;72.52;95471.25;5053118;28;20201;-81
2021/01/20 02:38:49;;;;;;;18.55;11.07;;;;;;;-1.89;72.87;95470.53;5053136;28;20213;-81
2021/01/20 02:41:24;;;;;;;17.05;9.82;;;;;;;-1.92;72.67;95462.06;5053005;28;20554;-81
2021/01/20 02:43:51;;;;;;;21.80;10.98;;;;;;;-1.97;72.83;95469.06;5053384;28;20202;-81
2021/01/20 02:46:18;;;;;;;17.88;10.43;;;;;;;-1.98;72.93;95460.50;5033763;28;20662;-81
2021/01/20 02:48:46;;;;;;;20.33;10.65;;;;;;;-1.98;73.51;95468.22;5034695;28;20210;-81
2021/01/20 02:51:15;;;;;;;17.77;10.07;;;;;;;-1.98;73.35;95472.53;5053483;28;20526;-81
2021/01/20 02:53:42;;;;;;;21.13;10.18;;;;;;;-2.04;73.44;95470.94;5053182;28;20272;-81
2021/01/20 02:56:12;;;;;;;15.30;9.25;;;;;;;-2.03;73.66;95475.19;5053378;28;20203;-81
2021/01/20 02:58:43;;;;;;;19.42;10.65;;;;;;;-2.06;73.48;95477.84;5053095;28;20561;-81
2021/01/20 03:01:12;;;;;;;17.38;10.35;;;;;;;-2.10;73.07;95472.84;5053371;28;20221;-81
2021/01/20 03:03:39;;;;;;;15.57;10.23;;;;;;;-2.15;73.63;95484.97;5066638;28;20203;-80
2021/01/20 03:06:07;;;;;;;17.02;9.52;;;;;;;-2.22;74.06;95487.69;5067598;28;20210;-80
2021/01/20 03:08:34;;;;;;;14.00;9.25;;;;;;;-2.22;74.58;95485.13;5052638;28;20693;-81
2021/01/20 03:11:05;;;;;;;16.52;9.98;;;;;;;-2.24;74.70;95488.63;5034292;28;20206;-81
2021/01/20 03:13:35;;;;;;;16.55;9.70;;;;;;;-2.28;74.39;95481.88;5052728;28;20321;-80
2021/01/20 03:16:02;;;;;;;17.83;10.30;;;;;;;-2.29;74.24;95477.63;5052776;28;20264;-81
2021/01/20 03:18:29;;;;;;;17.27;7.80;;;;;;;-2.29;74.97;95475.91;5050289;28;20652;-81
2021/01/20 03:20:55;;;;;;;17.27;10.27;;;;;;;-2.30;74.62;95476.78;5052623;28;20207;-81
2021/01/20 03:23:22;;;;;;;17.35;8.88;;;;;;;-2.33;74.19;95473.41;5053156;28;20235;-81
2021/01/20 03:25:49;;;;;;;25.50;11.63;;;;;;;-2.35;74.69;95481.16;5052538;28;20213;-81
2021/01/20 03:28:15;;;;;;;16.13;10.48;;;;;;;-2.32;74.93;95475.09;5052497;28;20207;-81
2021/01/20 03:30:41;;;;;;;11.43;8.35;;;;;;;-2.27;74.55;95475.84;5033791;28;20203;-81
2021/01/20 03:33:08;;;;;;;19.77;10.80;;;;;;;-2.24;74.09;95480.91;5033978;28;20226;-82
2021/01/20 03:35:34;;;;;;;18.50;9.20;;;;;;;-2.24;73.82;95476.63;5052446;28;20211;-81
2021/01/20 03:38:01;;;;;;;17.42;9.55;;;;;;;-2.29;73.95;95478.47;5052932;28;20227;-81
2021/01/20 03:40:28;;;;;;;14.48;9.45;;;;;;;-2.33;73.46;95478.56;5052230;28;20207;-81
2021/01/20 03:42:54;;;;;;;21.77;11.93;;;;;;;-2.36;73.90;95481.22;5052673;28;20210;-81
2021/01/20 03:45:22;;;;;;;18.73;11.32;;;;;;;-2.36;74.38;95473.50;5052171;28;20207;-81
2021/01/20 03:47:48;;;;;;;12.70;8.98;;;;;;;-2.34;74.46;95480.28;5033574;28;20203;-81
2021/01/20 03:50:15;;;;;;;22.63;8.70;;;;;;;-2.33;74.30;95481.13;5017433;28;20207;-81
2021/01/20 03:52:41;;;;;;;16.67;8.15;;;;;;;-2.30;74.56;95475.94;5052347;28;20199;-80
2021/01/20 03:55:08;;;;;;;14.75;7.28;;;;;;;-2.28;74.72;95474.16;5052662;28;20344;-80
2021/01/20 03:57:35;;;;;;;11.50;8.13;;;;;;;-2.33;74.34;95466.56;5055314;28;20210;-81
2021/01/20 04:00:03;;;;;;;12.65;8.13;;;;;;;-2.34;75.12;95472.56;5020727;28;20217;-81
2021/01/20 04:02:29;;;;;;;10.68;7.93;;;;;;;-2.33;74.42;95470.84;5055867;28;20213;-80
2021/01/20 04:04:55;;;;;;;13.73;8.45;;;;;;;-2.34;75.22;95479.44;5055951;28;20207;-81
2021/01/20 04:07:22;;;;;;;16.23;8.48;;;;;;;-2.32;74.60;95486.22;5055707;28;20201;-81
2021/01/20 04:09:48;;;;;;;17.25;8.57;;;;;;;-2.32;74.73;95481.09;5055687;28;20218;-80
2021/01/20 04:12:14;;;;;;;14.82;8.75;;;;;;;-2.34;75.01;95482.84;5055480;28;20603;-81
2021/01/20 04:14:41;;;;;;;20.73;11.43;;;;;;;-2.33;75.00;95494.81;5020304;28;20260;-80
2021/01/20 04:17:08;;;;;;;18.50;10.50;;;;;;;-2.34;75.21;95484.59;5055783;28;20199;-81
2021/01/20 04:19:34;;;;;;;19.27;10.02;;;;;;;-2.39;75.27;95479.56;5055512;28;20199;-80
2021/01/20 04:22:00;;;;;;;22.40;11.73;;;;;;;-2.36;75.81;95488.91;5055695;28;20238;-81
2021/01/20 04:24:27;;;;;;;24.10;11.55;;;;;;;-2.34;75.66;95492.28;5055457;28;20260;-81
2021/01/20 04:26:53;;;;;;;24.05;11.20;;;;;;;-2.35;75.67;95493.19;5055595;28;20279;-81
2021/01/20 04:29:19;;;;;;;17.85;11.35;;;;;;;-2.33;76.01;95491.41;5036718;28;20203;-82
2021/01/20 04:31:47;;;;;;;18.98;10.70;;;;;;;-2.32;76.65;95487.97;5055396;28;20522;-81
2021/01/20 04:34:13;;;;;;;19.83;12.45;;;;;;;-2.27;76.15;95501.56;5054939;28;20264;-81
2021/01/20 04:36:39;;;;;;;34.13;14.45;;;;;;;-2.17;76.15;95494.44;5055133;28;20203;-81
2021/01/20 04:39:06;;;;;;;33.40;12.88;;;;;;;-2.10;76.46;95499.38;5054917;28;20198;-81
2021/01/20 04:41:33;;;;;;;26.55;10.75;;;;;;;-2.01;75.65;95514.59;5054835;28;20202;-80
2021/01/20 04:43:59;;;;;;;11.85;7.85;;;;;;;-1.96;75.56;95517.88;5055099;28;20199;-81
2021/01/20 04:46:28;;;;;;;10.35;7.00;;;;;;;-1.89;75.59;95521.13;5054952;28;20214;-81
2021/01/20 04:48:56;;;;;;;13.52;8.57;;;;;;;-1.85;74.89;95503.88;5055039;28;20205;-81
2021/01/20 04:51:24;;;;;;;20.80;11.18;;;;;;;-1.85;74.84;95502.16;5055325;28;20222;-81
2021/01/20 04:53:54;;;;;;;21.70;11.18;;;;;;;-1.80;75.20;95514.88;5054740;28;20629;-81
2021/01/20 04:56:21;;;;;;;21.30;9.60;;;;;;;-1.78;74.44;95520.81;5054766;28;20595;-80
2021/01/20 04:58:51;;;;;;;17.63;9.93;;;;;;;-1.74;74.49;95525.00;5036147;28;20202;-82
2021/01/20 05:01:19;;;;;;;12.57;8.98;;;;;;;-1.71;74.82;95527.53;5055025;28;20206;-80
2021/01/20 05:03:46;;;;;;;18.13;9.15;;;;;;;-1.69;73.99;95523.19;5055008;28;20228;-80
2021/01/20 05:06:14;;;;;;;20.08;10.35;;;;;;;-1.69;73.81;95525.75;5054823;28;20214;-81
2021/01/20 05:08:40;;;;;;;19.90;9.90;;;;;;;-1.69;74.27;95543.75;5054423;28;20202;-81
2021/01/20 05:11:06;;;;;;;20.92;12.98;;;;;;;-1.65;73.91;95558.22;5054871;28;20261;-80
2021/01/20 05:13:33;;;;;;;29.27;14.20;;;;;;;-1.63;74.08;95561.59;5054858;28;20691;-80
2021/01/20 05:15:59;;;;;;;19.02;12.07;;;;;;;-1.61;73.15;95550.38;5054936;28;20239;-81
2021/01/20 05:18:26;;;;;;;25.42;12.93;;;;;;;-1.60;72.82;95570.06;5035852;28;20203;-82
2021/01/20 05:20:52;;;;;;;21.67;12.50;;;;;;;-1.61;73.06;95558.09;5054936;28;20202;-79
2021/01/20 05:23:26;;;;;;;22.55;12.93;;;;;;;-1.64;72.98;95559.91;5018413;28;20222;-82
2021/01/20 05:25:53;;;;;;;26.85;12.85;;;;;;;-1.64;73.22;95565.06;5054375;28;20219;-80
2021/01/20 05:28:22;;;;;;;19.88;11.77;;;;;;;-1.64;73.58;95560.75;5054500;28;20199;-80
2021/01/20 05:30:51;;;;;;;20.88;13.40;;;;;;;-1.63;74.21;95564.16;5054173;28;20206;-82
2021/01/20 05:33:20;;;;;;;19.17;12.27;;;;;;;-1.59;73.52;95547.75;5053848;28;20234;-81
2021/01/20 05:36:04;;;;;;;21.23;12.38;;;;;;;-1.60;73.25;95543.50;5035481;28;20203;-82
2021/01/20 05:38:39;;;;;;;21.10;13.23;;;;;;;-1.61;73.22;95552.94;5053978;28;20203;-81
2021/01/20 05:41:17;;;;;;;28.95;12.35;;;;;;;-1.64;73.76;95565.06;5054312;28;20205;-83
2021/01/20 05:43:43;;;;;;;22.70;12.80;;;;;;;-1.64;73.54;95572.78;5053895;28;20691;-81
2021/01/20 05:46:10;;;;;;;27.83;14.48;;;;;;;-1.64;73.42;95571.03;5054573;28;20206;-82
2021/01/20 05:48:46;;;;;;;24.25;12.65;;;;;;;-1.65;74.34;95571.94;5053802;28;20207;-80
2021/01/20 05:51:13;;;;;;;23.00;13.32;;;;;;;-1.67;73.79;95575.44;5054285;28;20602;-81
2021/01/20 05:53:51;;;;;;;26.98;14.43;;;;;;;-1.71;74.17;95566.09;5053777;28;20218;-82
2021/01/20 05:56:25;;;;;;;25.58;13.63;;;;;;;-1.75;73.55;95564.47;5054248;28;20206;-81
2021/01/20 05:58:51;;;;;;;26.00;14.07;;;;;;;-1.74;73.68;95556.72;5054023;28;20206;-80
2021/01/20 06:01:17;;;;;;;31.58;16.60;;;;;;;-1.78;74.09;95574.84;5053791;28;20725;-82
2021/01/20 06:03:44;;;;;;;36.90;17.85;;;;;;;-1.75;74.34;95573.03;5018216;28;20238;-82
2021/01/20 06:06:10;;;;;;;32.55;18.48;;;;;;;-1.65;75.02;95573.66;5053766;28;20203;-83
2021/01/20 06:08:37;;;;;;;32.03;15.43;;;;;;;-1.59;75.00;95569.19;5018176;28;20199;-83
2021/01/20 06:11:05;;;;;;;29.20;15.35;;;;;;;-1.53;74.47;95572.47;5054419;28;20195;-82
2021/01/20 06:13:32;;;;;;;31.08;19.65;;;;;;;-1.42;75.03;95576.47;5054079;28;20463;-82
2021/01/20 06:16:00;;;;;;;32.50;17.88;;;;;;;-1.25;74.45;95579.41;5085556;28;20186;-79
2021/01/20 06:18:36;;;;;;;40.95;16.55;;;;;;;-1.16;73.53;95580.03;5066876;28;20225;-83
2021/01/20 06:21:03;;;;;;;33.25;17.35;;;;;;;-1.01;73.92;95574.44;5052379;28;20663;-82
2021/01/20 06:23:33;;;;;;;39.97;24.27;;;;;;;-0.91;72.82;95562.13;5056116;28;20264;-82
2021/01/20 06:26:13;;;;;;;43.70;23.73;;;;;;;-0.83;72.56;95561.03;5073176;28;20206;-83
2021/01/20 06:28:49;;;;;;;50.60;26.65;;;;;;;-0.82;72.59;95565.28;5072758;28;20206;-82
2021/01/20 06:31:17;;;;;;;47.00;24.80;;;;;;;-0.82;72.66;95562.72;5053118;28;20209;-82
2021/01/20 06:33:43;;;;;;;45.25;21.95;;;;;;;-0.83;72.55;95562.78;5072511;28;20681;-82
2021/01/20 06:36:10;;;;;;;48.08;19.80;;;;;;;-0.82;72.43;95567.88;5075609;28;20202;-81
2021/01/20 06:38:40;;;;;;;36.85;19.00;;;;;;;-0.80;71.85;95580.72;5073380;28;20194;-81
2021/01/20 06:41:10;;;;;;;37.85;19.00;;;;;;;-0.79;72.81;95569.50;5073104;28;20202;-81
2021/01/20 06:43:43;;;;;;;45.13;24.75;;;;;;;-0.70;72.69;95584.69;5072801;28;20217;-82
2021/01/20 06:46:28;;;;;;;161.05;64.28;;;;;;;-0.64;72.09;95582.75;5072572;28;20202;-82
2021/01/20 06:49:21;;;;;;;116.78;41.33;;;;;;;-0.64;71.46;95582.75;5072874;28;20210;-81
2021/01/20 06:52:06;;;;;;;54.15;28.17;;;;;;;-0.65;71.92;95588.81;5072323;28;20202;-82
2021/01/20 06:54:37;;;;;;;43.50;21.50;;;;;;;-0.67;71.66;95594.91;5069629;28;20263;-81
2021/01/20 06:57:27;;;;;;;40.17;19.65;;;;;;;-0.68;71.93;95590.63;5072771;28;20210;-80
2021/01/20 07:00:12;;;;;;;37.70;18.08;;;;;;;-0.67;71.71;95605.22;5056697;28;20210;-84
2021/01/20 07:02:58;;;;;;;47.75;22.38;;;;;;;-0.61;71.69;95594.72;5072543;28;20200;-84
2021/01/20 07:05:32;;;;;;;43.00;20.85;;;;;;;-0.51;71.58;95608.19;5072367;28;20248;-82
2021/01/20 07:07:58;;;;;;;40.05;20.17;;;;;;;-0.46;72.01;95609.72;5072952;28;20205;-82
2021/01/20 07:10:26;;;;;;;204.27;83.70;;;;;;;-0.64;72.83;95616.25;5072672;28;20210;-82
2021/01/20 07:13:30;;;;;;;58.80;29.75;;;;;;;-0.48;72.78;95613.25;5070845;28;20252;-82
2021/01/20 07:15:57;;;;;;;60.47;33.05;;;;;;;-0.32;72.95;95635.06;5010488;28;20260;-81
2021/01/20 07:18:24;;;;;;;47.38;24.10;;;;;;;-0.16;72.92;95630.31;5010733;28;20235;-82
2021/01/20 07:20:53;;;;;;;43.58;21.10;;;;;;;0.09;73.04;95635.53;5010428;28;20632;-82
2021/01/20 07:23:19;;;;;;;51.08;20.80;;;;;;;0.28;72.49;95646.91;5009602;28;20236;-83
2021/01/20 07:25:51;;;;;;;38.45;17.65;;;;;;;0.52;71.30;95646.13;5011077;28;20208;-81
2021/01/20 07:28:18;;;;;;;47.03;20.40;;;;;;;0.75;71.06;95641.91;5010559;28;20439;-81
2021/01/20 07:30:44;;;;;;;34.25;21.50;;;;;;;0.90;69.78;95641.41;5010979;28;20489;-84
2021/01/20 07:33:15;;;;;;;43.63;20.27;;;;;;;1.03;69.00;95632.31;5014275;28;20204;-82
2021/01/20 07:35:42;;;;;;;47.25;21.95;;;;;;;1.12;67.91;95642.31;5014630;28;20250;-81
2021/01/20 07:38:08;;;;;;;31.27;15.35;;;;;;;1.24;67.51;95634.13;5013942;28;20204;-79
2021/01/20 07:40:36;;;;;;;29.17;18.67;;;;;;;1.41;66.40;95648.16;5014602;28;20659;-81
2021/01/20 07:43:04;;;;;;;32.03;18.83;;;;;;;1.50;65.24;95640.06;5014197;28;20200;-81
2021/01/20 07:45:35;;;;;;;51.90;24.73;;;;;;;1.61;65.19;95637.06;5011770;28;20211;-81
2021/01/20 07:48:02;;;;;;;37.08;19.45;;;;;;;1.73;65.22;95634.00;5010544;28;20217;-82
2021/01/20 07:50:45;;;;;;;34.05;17.98;;;;;;;1.71;63.88;95646.16;5014167;28;20220;-80
2021/01/20 07:53:13;;;;;;;25.75;14.75;;;;;;;1.67;63.14;95650.59;5061207;28;20206;-81
2021/01/20 07:55:40;;;;;;;26.55;15.30;;;;;;;1.71;63.09;95647.00;5072451;28;20194;-78
2021/01/20 07:58:07;;;;;;;23.73;11.25;;;;;;;1.71;63.02;95643.56;5070619;28;20198;-79
2021/01/20 08:00:45;;;;;;;39.60;24.38;;;;;;;1.62;62.78;95649.09;5040435;28;20635;-80
2021/01/20 08:03:11;;;;;;;55.17;25.83;;;;;;;1.67;62.83;95653.19;5075267;28;20202;-79
2021/01/20 08:05:38;;;;;;;39.30;18.52;;;;;;;1.68;62.24;95654.88;5056532;28;20198;-79
2021/01/20 08:08:08;;;;;;;121.65;63.53;;;;;;;1.72;62.50;95647.84;5067786;28;20210;-80
2021/01/20 08:10:35;;;;;;;21.75;13.32;;;;;;;1.58;61.94;95656.13;5067183;28;20289;-79
2021/01/20 08:13:02;;;;;;;26.42;15.05;;;;;;;1.49;62.47;95646.16;5055035;28;20655;-80
2021/01/20 08:15:33;;;;;;;24.80;15.50;;;;;;;1.60;62.99;95646.56;5074247;28;20224;-80
2021/01/20 08:18:00;;;;;;;27.67;15.88;;;;;;;1.73;63.16;95657.28;5075228;28;20648;-78
2021/01/20 08:20:32;;;;;;;26.88;16.80;;;;;;;1.63;62.51;95648.19;5075299;28;20195;-80
2021/01/20 08:22:59;;;;;;;34.03;18.40;;;;;;;1.73;62.97;95645.19;5075321;28;20230;-78
2021/01/20 08:25:27;;;;;;;45.45;19.63;;;;;;;1.77;63.39;95633.00;5055841;28;20526;-79
2021/01/20 08:27:54;;;;;;;31.60;18.65;;;;;;;1.55;63.36;95640.75;5075346;28;20206;-80
2021/01/20 08:30:31;;;;;;;27.92;15.65;;;;;;;1.77;62.69;95646.78;5074101;28;20220;-78
2021/01/20 08:32:58;;;;;;;21.65;12.38;;;;;;;1.75;61.43;95640.00;5071647;28;20264;-80
2021/01/20 08:35:32;;;;;;;24.25;14.77;;;;;;;1.81;60.98;95642.34;5039649;28;20225;-80
2021/01/20 08:37:59;;;;;;;21.40;13.80;;;;;;;1.89;60.99;95639.44;5040326;28;20205;-80
2021/01/20 08:40:27;;;;;;;32.17;18.40;;;;;;;1.95;61.47;95634.03;5075309;28;20256;-80
2021/01/20 08:42:54;;;;;;;31.48;14.18;;;;;;;1.91;61.40;95635.06;5073935;28;20210;-81
2021/01/20 08:45:31;;;;;;;23.70;14.20;;;;;;;2.07;60.83;95644.75;5075004;28;20202;-81
2021/01/20 08:47:59;;;;;;;31.25;17.20;;;;;;;2.19;61.02;95630.47;5075112;28;20206;-80
2021/01/20 08:50:40;;;;;;;32.80;18.80;;;;;;;2.29;61.02;95623.16;5074745;28;20206;-80
2021/01/20 08:53:09;;;;;;;21.90;12.25;;;;;;;2.08;60.59;95630.91;5075047;28;20205;-80
2021/01/20 08:55:38;;;;;;;19.52;12.48;;;;;;;2.24;60.65;95623.34;5075207;28;20204;-80
2021/01/20 08:58:22;;;;;;;24.40;14.75;;;;;;;2.24;60.04;95636.28;5075212;28;20206;-80
2021/01/20 09:00:49;;;;;;;22.23;10.52;;;;;;;2.33;59.79;95633.34;5074755;28;20585;-80
2021/01/20 09:03:17;;;;;;;23.60;13.07;;;;;;;2.21;60.00;95631.25;5074722;28;20209;-80
2021/01/20 09:05:44;;;;;;;29.95;13.65;;;;;;;2.22;59.62;95637.25;5039657;28;20970;-81
2021/01/20 09:08:11;;;;;;;23.88;12.95;;;;;;;2.17;59.65;95634.88;5064570;28;20202;-82
2021/01/20 09:10:38;;;;;;;24.15;14.05;;;;;;;2.25;59.23;95639.72;5067047;28;20259;-81
2021/01/20 09:13:05;;;;;;;21.10;13.32;;;;;;;2.12;59.41;95626.44;5054327;28;20213;-82
2021/01/20 09:15:31;;;;;;;25.83;12.85;;;;;;;2.34;59.55;95636.78;5054065;28;20229;-82
2021/01/20 09:17:58;;;;;;;24.15;13.60;;;;;;;2.53;59.06;95636.84;5053833;28;20202;-82
2021/01/20 09:20:24;;;;;;;30.20;14.57;;;;;;;2.65;58.14;95628.59;5054095;28;20663;-82
2021/01/20 09:22:50;;;;;;;25.65;15.07;;;;;;;2.77;58.53;95623.72;5054251;28;20484;-83
2021/01/20 09:25:17;;;;;;;28.07;14.73;;;;;;;2.91;58.46;95617.97;5035275;28;20203;-81
2021/01/20 09:27:44;;;;;;;28.63;15.47;;;;;;;3.14;58.54;95613.50;5056924;28;20449;-82
2021/01/20 09:30:12;;;;;;;36.93;15.00;;;;;;;3.29;57.10;95620.59;5082350;28;20968;-81
2021/01/20 09:32:39;;;;;;;27.53;14.93;;;;;;;3.42;57.19;95608.75;5084520;28;20433;-84
2021/01/20 09:35:08;;;;;;;29.27;16.70;;;;;;;3.55;57.01;95614.25;5073992;28;20491;-83
2021/01/20 09:37:34;;;;;;;28.43;17.47;;;;;;;3.55;56.35;95593.50;5035719;28;20448;-83
2021/01/20 09:40:01;;;;;;;32.20;15.70;;;;;;;3.70;56.26;95596.19;5019188;28;20441;-83
2021/01/20 09:42:27;;;;;;;33.60;16.30;;;;;;;3.71;56.08;95594.44;5035289;28;20918;-82
2021/01/20 09:44:54;;;;;;;26.23;15.87;;;;;;;3.92;56.25;95584.81;5053602;28;20471;-83
2021/01/20 09:47:21;;;;;;;28.17;15.70;;;;;;;3.67;54.61;95585.97;5053647;28;20442;-82
2021/01/20 09:49:47;;;;;;;27.23;16.90;;;;;;;3.69;55.58;95578.94;5053558;28;20448;-81
2021/01/20 09:52:15;;;;;;;25.37;14.30;;;;;;;3.84;55.73;95580.00;5053868;28;20498;-82
2021/01/20 09:54:43;;;;;;;26.17;17.00;;;;;;;3.91;56.39;95577.94;5053811;28;20497;-82
2021/01/20 09:57:09;;;;;;;31.77;18.50;;;;;;;3.85;56.14;95586.88;5053732;28;20464;-82
2021/01/20 09:59:36;;;;;;;43.40;18.33;;;;;;;3.84;56.16;95572.19;5053529;28;20957;-82
2021/01/20 10:02:03;;;;;;;28.60;14.53;;;;;;;3.68;56.03;95566.88;5053727;28;20477;-86
2021/01/20 10:04:29;;;;;;;24.60;14.77;;;;;;;3.67;57.23;95569.56;5053648;28;20453;-82
2021/01/20 10:06:56;;;;;;;28.23;13.87;;;;;;;3.51;57.30;95553.88;5056243;28;20936;-83
2021/01/20 10:09:22;;;;;;;23.40;14.40;;;;;;;3.60;57.10;95547.41;5058001;28;20446;-82
2021/01/20 10:11:49;;;;;;;27.73;15.73;;;;;;;3.72;56.63;95550.25;5053177;28;20452;-82
2021/01/20 10:14:17;;;;;;;32.23;18.43;;;;;;;3.91;56.32;95544.19;5052787;28;20481;-82
2021/01/20 10:16:46;;;;;;;35.30;17.80;;;;;;;3.89;56.54;95546.03;5053270;28;20441;-81
2021/01/20 10:19:14;;;;;;;42.30;16.63;;;;;;;3.88;56.71;95541.75;5053148;28;20583;-82
2021/01/20 10:21:41;;;;;;;28.27;17.40;;;;;;;3.86;56.47;95540.97;5053396;28;20441;-82
2021/01/20 10:24:09;;;;;;;36.80;19.17;;;;;;;3.77;56.63;95537.09;5052897;28;20778;-83
2021/01/20 10:26:36;;;;;;;41.23;17.17;;;;;;;3.97;56.16;95539.53;5052771;28;20457;-82
2021/01/20 10:29:04;;;;;;;31.53;18.90;;;;;;;4.08;56.51;95546.81;5052498;28;21003;-82
2021/01/20 10:31:35;;;;;;;30.70;17.47;;;;;;;4.08;55.67;95535.59;5052731;28;20952;-83
2021/01/20 10:34:02;;;;;;;41.13;18.53;;;;;;;4.13;56.34;95547.44;5052648;28;20508;-82
2021/01/20 10:36:30;;;;;;;25.80;17.03;;;;;;;4.22;55.26;95543.53;5052808;28;20783;-84
2021/01/20 10:38:57;;;;;;;33.03;20.33;;;;;;;4.26;55.30;95548.50;5052332;28;20941;-82
2021/01/20 10:41:24;;;;;;;73.10;19.33;;;;;;;4.13;56.07;95539.63;5052744;28;20452;-82
2021/01/20 10:43:53;;;;;;;39.20;19.80;;;;;;;3.69;57.22;95534.81;5053249;28;20457;-82
2021/01/20 10:46:19;;;;;;;29.10;18.00;;;;;;;3.82;56.75;95532.50;5052994;28;20452;-80
2021/01/20 10:48:46;;;;;;;24.53;14.30;;;;;;;3.69;56.13;95540.00;5053110;28;20799;-80
2021/01/20 10:51:12;;;;;;;23.23;13.77;;;;;;;3.49;57.05;95532.34;5052829;28;20550;-82
2021/01/20 10:53:40;;;;;;;26.20;14.37;;;;;;;3.46;57.54;95544.59;5017627;28;20476;-85
2021/01/20 10:56:07;;;;;;;56.42;36.10;;;;;;;3.65;56.83;95535.88;5051929;28;20931;-82
2021/01/20 10:58:33;;;;;;;35.87;17.70;;;;;;;3.84;56.57;95528.06;5052923;28;20256;-82
2021/01/20 11:01:00;;;;;;;31.03;17.40;;;;;;;3.86;55.61;95525.41;5052548;28;20453;-81
2021/01/20 11:03:27;;;;;;;33.37;16.67;;;;;;;3.93;56.48;95519.00;5053057;28;20456;-83
2021/01/20 11:05:53;;;;;;;29.53;16.90;;;;;;;4.03;55.36;95522.81;5053342;28;20441;-80
2021/01/20 11:08:20;;;;;;;27.23;14.17;;;;;;;3.96;55.81;95517.09;5035895;28;20812;-81
2021/01/20 11:10:47;;;;;;;25.80;15.27;;;;;;;4.07;56.12;95513.97;5056930;28;20460;-81
2021/01/20 11:13:14;;;;;;;22.80;13.17;;;;;;;3.86;55.77;95510.66;5056618;28;20449;-81
2021/01/20 11:15:45;;;;;;;21.60;12.57;;;;;;;3.85;55.83;95503.78;5056545;28;20514;-79
2021/01/20 11:18:13;;;;;;;18.77;13.07;;;;;;;4.03;55.67;95512.41;5038374;28;20778;-80
2021/01/20 11:20:39;;;;;;;21.10;14.37;;;;;;;4.16;56.29;95503.13;5056316;28;20481;-79
2021/01/20 11:23:06;;;;;;;24.07;13.37;;;;;;;4.15;55.49;95498.00;5037599;28;20563;-80
2021/01/20 11:25:33;;;;;;;17.53;12.33;;;;;;;4.21;55.84;95490.75;5056574;28;20953;-79
2021/01/20 11:28:00;;;;;;;20.30;13.60;;;;;;;4.30;56.24;95507.63;5037815;28;20804;-81